sensor_id;sensor_type;location;lat;lon;timestamp;pressure;altitude;pressure_sealevel;temperature;humidity
58979;BME280;44763;50.464;30.612;2023-05-21T06:35:01;100976.09;;;19.81;37.81
58979;BME280;44763;50.464;30.612;2023-05-21T06:37:29;100972.87;;;19.74;37.30
58979;BME280;44763;50.464;30.612;2023-05-21T06:39:55;100968.86;;;19.68;37.31
58979;BME280;44763;50.464;30.612;2023-05-21T06:42:22;100954.02;;;19.60;37.52
58979;BME280;44763;50.464;30.612;2023-05-21T06:45:12;100952.70;;;19.38;37.46
58979;BME280;44763;50.464;30.612;2023-05-21T06:47:42;100973.05;;;19.21;37.77
58979;BME280;44763;50.464;30.612;2023-05-21T06:50:09;100971.83;;;19.24;37.85
58979;BME280;44763;50.464;30.612;2023-05-21T06:52:36;100964.42;;;19.46;37.55
58979;BME280;44763;50.464;30.612;2023-05-21T06:55:03;100956.33;;;19.75;36.93
58979;BME280;44763;50.464;30.612;2023-05-21T06:57:46;100954.21;;;19.83;36.67
58979;BME280;44763;50.464;30.612;2023-05-21T07:00:13;100952.45;;;19.79;36.86
58979;BME280;44763;50.464;30.612;2023-05-21T07:02:41;100953.66;;;19.76;36.95
58979;BME280;44763;50.464;30.612;2023-05-21T07:05:08;100945.05;;;19.69;36.08
58979;BME280;44763;50.464;30.612;2023-05-21T07:07:35;100944.61;;;19.58;36.08
58979;BME280;44763;50.464;30.612;2023-05-21T07:10:03;100946.98;;;19.60;36.22
58979;BME280;44763;50.464;30.612;2023-05-21T07:12:30;100947.26;;;19.64;36.42
58979;BME280;44763;50.464;30.612;2023-05-21T07:14:56;100934.52;;;19.59;36.32
58979;BME280;44763;50.464;30.612;2023-05-21T07:17:25;100952.60;;;19.34;36.43
58979;BME280;44763;50.464;30.612;2023-05-21T07:19:52;100951.96;;;19.01;36.77
58979;BME280;44763;50.464;30.612;2023-05-21T07:22:19;100939.41;;;18.69;37.45
58979;BME280;44763;50.464;30.612;2023-05-21T07:24:46;100936.02;;;18.46;38.17
58979;BME280;44763;50.464;30.612;2023-05-21T07:27:13;100931.34;;;18.27;38.68
58979;BME280;44763;50.464;30.612;2023-05-21T07:29:52;100928.95;;;18.09;38.97
58979;BME280;44763;50.464;30.612;2023-05-21T07:32:20;100925.16;;;17.99;39.39
58979;BME280;44763;50.464;30.612;2023-05-21T07:34:47;100934.85;;;17.88;39.80
58979;BME280;44763;50.464;30.612;2023-05-21T07:37:14;100949.76;;;17.91;39.85
58979;BME280;44763;50.464;30.612;2023-05-21T07:39:41;100927.08;;;18.07;39.51
58979;BME280;44763;50.464;30.612;2023-05-21T07:42:09;100919.17;;;18.17;39.78
58979;BME280;44763;50.464;30.612;2023-05-21T07:44:36;100930.77;;;18.20;39.89
58979;BME280;44763;50.464;30.612;2023-05-21T07:47:03;100919.74;;;18.21;39.69
58979;BME280;44763;50.464;30.612;2023-05-21T07:49:31;100909.21;;;18.04;40.31
58979;BME280;44763;50.464;30.612;2023-05-21T07:51:57;100915.06;;;18.05;40.39
58979;BME280;44763;50.464;30.612;2023-05-21T07:54:24;100914.58;;;18.16;39.92
58979;BME280;44763;50.464;30.612;2023-05-21T07:56:52;100907.63;;;18.25;39.64
58979;BME280;44763;50.464;30.612;2023-05-21T07:59:43;100899.30;;;18.46;39.61
58979;BME280;44763;50.464;30.612;2023-05-21T08:02:10;100899.54;;;18.45;39.88
58979;BME280;44763;50.464;30.612;2023-05-21T08:04:37;100903.98;;;18.31;40.07
58979;BME280;44763;50.464;30.612;2023-05-21T08:07:07;100908.66;;;18.21;40.62
58979;BME280;44763;50.464;30.612;2023-05-21T08:09:35;100908.62;;;18.25;40.63
58979;BME280;44763;50.464;30.612;2023-05-21T08:12:03;100905.86;;;18.34;40.44
58979;BME280;44763;50.464;30.612;2023-05-21T08:14:30;100919.11;;;18.27;39.89
58979;BME280;44763;50.464;30.612;2023-05-21T08:16:58;100915.63;;;18.07;40.20
58979;BME280;44763;50.464;30.612;2023-05-21T08:19:25;100904.43;;;17.98;40.24
58979;BME280;44763;50.464;30.612;2023-05-21T08:21:52;100906.23;;;17.91;40.84
58979;BME280;44763;50.464;30.612;2023-05-21T08:24:20;100909.30;;;17.93;41.00
58979;BME280;44763;50.464;30.612;2023-05-21T08:26:47;100914.36;;;18.04;40.58
58979;BME280;44763;50.464;30.612;2023-05-21T08:29:16;100899.56;;;17.94;40.82
58979;BME280;44763;50.464;30.612;2023-05-21T08:31:43;100895.09;;;17.84;40.81
58979;BME280;44763;50.464;30.612;2023-05-21T08:34:11;100914.77;;;17.82;41.18
58979;BME280;44763;50.464;30.612;2023-05-21T08:36:43;100910.76;;;17.81;41.09
58979;BME280;44763;50.464;30.612;2023-05-21T08:39:29;100909.99;;;18.01;40.61
58979;BME280;44763;50.464;30.612;2023-05-21T08:42:05;100902.60;;;18.03;40.52
58979;BME280;44763;50.464;30.612;2023-05-21T08:44:36;100906.51;;;18.13;40.31
58979;BME280;44763;50.464;30.612;2023-05-21T08:47:09;100900.48;;;18.21;39.96
58979;BME280;44763;50.464;30.612;2023-05-21T08:49:42;100898.54;;;18.25;39.99
58979;BME280;44763;50.464;30.612;2023-05-21T08:52:12;100896.29;;;18.21;40.24
58979;BME280;44763;50.464;30.612;2023-05-21T08:54:40;100896.39;;;18.08;40.50
58979;BME280;44763;50.464;30.612;2023-05-21T08:57:09;100899.94;;;18.03;40.64
58979;BME280;44763;50.464;30.612;2023-05-21T08:59:38;100883.55;;;17.94;40.83
58979;BME280;44763;50.464;30.612;2023-05-21T09:02:18;100891.40;;;17.90;41.20
58979;BME280;44763;50.464;30.612;2023-05-21T16:04:45;100755.23;;;18.91;34.74
58979;BME280;44763;50.464;30.612;2023-05-21T16:07:15;100752.94;;;18.90;35.13
58979;BME280;44763;50.464;30.612;2023-05-21T16:09:42;100754.27;;;18.89;35.48
58979;BME280;44763;50.464;30.612;2023-05-21T16:12:09;100745.58;;;18.91;35.60
58979;BME280;44763;50.464;30.612;2023-05-21T16:14:36;100741.25;;;18.91;35.87
58979;BME280;44763;50.464;30.612;2023-05-21T16:17:03;100743.39;;;18.93;36.21
58979;BME280;44763;50.464;30.612;2023-05-21T16:19:30;100731.30;;;18.87;36.22
58979;BME280;44763;50.464;30.612;2023-05-21T16:21:59;100749.58;;;18.95;36.15
58979;BME280;44763;50.464;30.612;2023-05-21T16:24:26;100746.17;;;18.94;36.12
58979;BME280;44763;50.464;30.612;2023-05-21T16:26:53;100749.39;;;18.93;36.29
58979;BME280;44763;50.464;30.612;2023-05-21T16:29:20;100754.61;;;18.94;36.21
58979;BME280;44763;50.464;30.612;2023-05-21T16:31:47;100748.79;;;18.95;36.11
58979;BME280;44763;50.464;30.612;2023-05-21T16:34:14;100750.31;;;18.91;36.15
58979;BME280;44763;50.464;30.612;2023-05-21T16:36:41;100746.27;;;18.89;36.07
58979;BME280;44763;50.464;30.612;2023-05-21T16:39:08;100741.77;;;18.88;36.22
58979;BME280;44763;50.464;30.612;2023-05-21T16:41:35;100747.89;;;18.89;35.84
58979;BME280;44763;50.464;30.612;2023-05-21T16:44:02;100746.21;;;18.87;35.79
58979;BME280;44763;50.464;30.612;2023-05-21T16:46:29;100740.48;;;18.79;35.84
58979;BME280;44763;50.464;30.612;2023-05-21T16:48:56;100727.69;;;18.71;35.96
58979;BME280;44763;50.464;30.612;2023-05-21T16:51:23;100748.53;;;18.78;35.96
58979;BME280;44763;50.464;30.612;2023-05-21T16:53:50;100745.77;;;18.74;36.18
58979;BME280;44763;50.464;30.612;2023-05-21T16:56:17;100744.93;;;18.73;36.32
58979;BME280;44763;50.464;30.612;2023-05-21T16:58:44;100738.81;;;18.68;36.34
58979;BME280;44763;50.464;30.612;2023-05-21T17:01:10;100733.42;;;18.64;36.48
58979;BME280;44763;50.464;30.612;2023-05-21T17:03:37;100737.54;;;18.62;36.62
58979;BME280;44763;50.464;30.612;2023-05-21T17:06:08;100731.85;;;18.59;36.64
58979;BME280;44763;50.464;30.612;2023-05-21T17:08:35;100728.79;;;18.53;36.99
58979;BME280;44763;50.464;30.612;2023-05-21T17:11:02;100725.80;;;18.53;36.95
58979;BME280;44763;50.464;30.612;2023-05-21T17:13:29;100728.13;;;18.50;37.01
58979;BME280;44763;50.464;30.612;2023-05-21T17:15:56;100726.48;;;18.48;37.11
58979;BME280;44763;50.464;30.612;2023-05-21T17:18:23;100725.01;;;18.45;37.33
58979;BME280;44763;50.464;30.612;2023-05-21T17:20:50;100726.23;;;18.41;37.32
58979;BME280;44763;50.464;30.612;2023-05-21T17:23:17;100728.91;;;18.39;37.41
58979;BME280;44763;50.464;30.612;2023-05-21T17:25:44;100726.58;;;18.26;37.58
58979;BME280;44763;50.464;30.612;2023-05-21T17:28:11;100726.12;;;18.17;37.74
58979;BME280;44763;50.464;30.612;2023-05-21T17:30:38;100723.08;;;18.12;37.78
58979;BME280;44763;50.464;30.612;2023-05-21T17:33:05;100721.27;;;18.08;38.02
58979;BME280;44763;50.464;30.612;2023-05-21T17:35:33;100716.38;;;18.05;37.98
58979;BME280;44763;50.464;30.612;2023-05-21T17:38:00;100715.88;;;18.01;37.95
58979;BME280;44763;50.464;30.612;2023-05-21T17:40:27;100714.93;;;17.98;38.21
58979;BME280;44763;50.464;30.612;2023-05-21T17:42:54;100718.67;;;17.94;38.46
58979;BME280;44763;50.464;30.612;2023-05-21T17:45:20;100718.67;;;17.90;38.53
58979;BME280;44763;50.464;30.612;2023-05-21T17:47:47;100717.89;;;17.87;38.54
58979;BME280;44763;50.464;30.612;2023-05-21T17:50:14;100720.57;;;17.84;38.57
58979;BME280;44763;50.464;30.612;2023-05-21T17:52:41;100720.67;;;17.81;38.64
58979;BME280;44763;50.464;30.612;2023-05-21T17:55:09;100719.02;;;17.77;38.65
58979;BME280;44763;50.464;30.612;2023-05-21T17:57:36;100723.34;;;17.73;38.74
58979;BME280;44763;50.464;30.612;2023-05-21T18:00:03;100726.20;;;17.69;38.86
58979;BME280;44763;50.464;30.612;2023-05-21T18:02:37;100715.60;;;17.58;38.96
58979;BME280;44763;50.464;30.612;2023-05-21T18:05:04;100726.91;;;17.62;38.99
58979;BME280;44763;50.464;30.612;2023-05-21T18:07:31;100727.25;;;17.59;39.10
58979;BME280;44763;50.464;30.612;2023-05-21T18:09:58;100724.59;;;17.56;39.14
58979;BME280;44763;50.464;30.612;2023-05-21T18:12:24;100725.08;;;17.53;39.28
58979;BME280;44763;50.464;30.612;2023-05-21T18:14:51;100727.64;;;17.50;39.35
58979;BME280;44763;50.464;30.612;2023-05-21T18:17:18;100726.10;;;17.47;39.42
58979;BME280;44763;50.464;30.612;2023-05-21T18:19:45;100726.63;;;17.45;39.59
58979;BME280;44763;50.464;30.612;2023-05-21T18:22:12;100725.11;;;17.43;39.76
58979;BME280;44763;50.464;30.612;2023-05-21T18:24:39;100727.62;;;17.40;39.84
58979;BME280;44763;50.464;30.612;2023-05-21T18:27:06;100723.14;;;17.40;39.85
58979;BME280;44763;50.464;30.612;2023-05-21T18:29:33;100722.82;;;17.37;39.92
58979;BME280;44763;50.464;30.612;2023-05-21T18:31:59;100724.94;;;17.36;40.04
58979;BME280;44763;50.464;30.612;2023-05-21T18:34:27;100720.65;;;17.32;40.15
58979;BME280;44763;50.464;30.612;2023-05-21T18:36:54;100713.63;;;17.23;40.23
58979;BME280;44763;50.464;30.612;2023-05-21T18:39:24;100723.23;;;17.28;40.25
58979;BME280;44763;50.464;30.612;2023-05-21T18:41:52;100715.30;;;17.17;40.45
58979;BME280;44763;50.464;30.612;2023-05-21T18:44:38;100724.98;;;17.23;40.47
58979;BME280;44763;50.464;30.612;2023-05-21T18:47:05;100726.96;;;17.16;40.58
58979;BME280;44763;50.464;30.612;2023-05-21T18:51:42;100723.56;;;17.12;40.88
58979;BME280;44763;50.464;30.612;2023-05-21T18:54:09;100726.54;;;17.12;41.10
58979;BME280;44763;50.464;30.612;2023-05-21T18:56:36;100721.89;;;17.09;41.19
58979;BME280;44763;50.464;30.612;2023-05-21T18:59:03;100717.70;;;17.05;41.29
58979;BME280;44763;50.464;30.612;2023-05-21T19:01:30;100718.98;;;16.97;41.71
58979;BME280;44763;50.464;30.612;2023-05-21T19:03:57;100715.59;;;16.96;42.00
58979;BME280;44763;50.464;30.612;2023-05-21T19:06:24;100715.59;;;16.90;42.14
58979;BME280;44763;50.464;30.612;2023-05-21T19:08:52;100715.91;;;16.88;42.31
58979;BME280;44763;50.464;30.612;2023-05-21T19:11:19;100717.00;;;16.86;42.36
58979;BME280;44763;50.464;30.612;2023-05-21T19:13:48;100717.31;;;16.82;42.47
58979;BME280;44763;50.464;30.612;2023-05-21T19:16:15;100716.38;;;16.77;42.68
58979;BME280;44763;50.464;30.612;2023-05-21T19:18:42;100716.53;;;16.70;42.64
58979;BME280;44763;50.464;30.612;2023-05-21T19:21:09;100716.80;;;16.55;43.14
58979;BME280;44763;50.464;30.612;2023-05-21T19:23:36;100714.31;;;16.45;43.35
58979;BME280;44763;50.464;30.612;2023-05-21T19:26:17;100716.08;;;16.43;43.35
58979;BME280;44763;50.464;30.612;2023-05-21T19:28:44;100714.30;;;16.51;43.20
58979;BME280;44763;50.464;30.612;2023-05-21T19:31:11;100712.95;;;16.43;43.54
58979;BME280;44763;50.464;30.612;2023-05-21T19:33:38;100707.30;;;16.48;43.41
58979;BME280;44763;50.464;30.612;2023-05-21T19:36:05;100707.67;;;16.40;43.50
58979;BME280;44763;50.464;30.612;2023-05-21T19:38:34;100706.73;;;16.42;43.56
58979;BME280;44763;50.464;30.612;2023-05-21T19:41:01;100706.27;;;16.37;43.67
58979;BME280;44763;50.464;30.612;2023-05-21T19:43:28;100706.45;;;16.40;43.60
58979;BME280;44763;50.464;30.612;2023-05-21T19:45:54;100709.23;;;16.39;43.71
58979;BME280;44763;50.464;30.612;2023-05-21T19:48:21;100706.73;;;16.37;43.89
58979;BME280;44763;50.464;30.612;2023-05-21T19:50:48;100709.80;;;16.33;43.98
58979;BME280;44763;50.464;30.612;2023-05-21T19:53:15;100710.11;;;16.28;44.07
58979;BME280;44763;50.464;30.612;2023-05-21T19:55:42;100708.88;;;16.24;44.23
58979;BME280;44763;50.464;30.612;2023-05-21T19:58:09;100710.92;;;16.20;44.48
58979;BME280;44763;50.464;30.612;2023-05-21T20:00:38;100707.83;;;16.18;44.49
58979;BME280;44763;50.464;30.612;2023-05-21T20:03:05;100708.46;;;16.15;44.62
58979;BME280;44763;50.464;30.612;2023-05-21T20:05:32;100710.05;;;16.13;44.74
58979;BME280;44763;50.464;30.612;2023-05-21T20:07:59;100709.48;;;16.10;44.87
58979;BME280;44763;50.464;30.612;2023-05-21T20:10:26;100712.64;;;16.09;45.22
58979;BME280;44763;50.464;30.612;2023-05-21T20:12:53;100713.23;;;16.04;45.80
58979;BME280;44763;50.464;30.612;2023-05-21T20:15:20;100714.41;;;15.95;46.45
58979;BME280;44763;50.464;30.612;2023-05-21T20:17:47;100712.98;;;15.83;47.07
58979;BME280;44763;50.464;30.612;2023-05-21T20:20:16;100712.55;;;15.70;47.37
58979;BME280;44763;50.464;30.612;2023-05-21T20:22:44;100710.50;;;15.53;48.06
58979;BME280;44763;50.464;30.612;2023-05-21T20:25:11;100710.33;;;15.45;48.53
58979;BME280;44763;50.464;30.612;2023-05-21T20:27:38;100709.40;;;15.38;48.80
58979;BME280;44763;50.464;30.612;2023-05-21T20:30:06;100710.79;;;15.26;49.39
58979;BME280;44763;50.464;30.612;2023-05-21T20:32:34;100712.76;;;15.10;49.97
58979;BME280;44763;50.464;30.612;2023-05-21T20:35:02;100709.04;;;15.07;50.43
58979;BME280;44763;50.464;30.612;2023-05-21T20:37:29;100710.52;;;14.99;50.96
58979;BME280;44763;50.464;30.612;2023-05-21T20:39:58;100713.59;;;15.02;50.70
58979;BME280;44763;50.464;30.612;2023-05-21T20:42:26;100709.70;;;15.05;50.85
58979;BME280;44763;50.464;30.612;2023-05-21T20:44:54;100710.48;;;15.05;51.08
58979;BME280;44763;50.464;30.612;2023-05-21T20:47:24;100708.30;;;15.05;50.71
58979;BME280;44763;50.464;30.612;2023-05-21T20:49:57;100708.34;;;15.06;50.59
58979;BME280;44763;50.464;30.612;2023-05-21T20:52:24;100703.66;;;15.13;50.52
58979;BME280;44763;50.464;30.612;2023-05-21T20:54:51;100705.75;;;15.20;50.38
58979;BME280;44763;50.464;30.612;2023-05-21T20:57:20;100706.45;;;15.21;50.60
58979;BME280;44763;50.464;30.612;2023-05-21T20:59:52;100707.01;;;15.17;51.07
58979;BME280;44763;50.464;30.612;2023-05-21T21:02:19;100706.20;;;15.19;50.97
58979;BME280;44763;50.464;30.612;2023-05-21T21:04:46;100706.85;;;15.05;51.44
58979;BME280;44763;50.464;30.612;2023-05-21T21:07:15;100708.38;;;15.09;51.50
58979;BME280;44763;50.464;30.612;2023-05-21T21:09:47;100712.94;;;14.99;51.55
58979;BME280;44763;50.464;30.612;2023-05-21T21:12:14;100713.05;;;15.00;51.43
58979;BME280;44763;50.464;30.612;2023-05-21T21:14:51;100712.02;;;15.02;51.68
58979;BME280;44763;50.464;30.612;2023-05-21T21:17:18;100714.16;;;15.02;51.79
58979;BME280;44763;50.464;30.612;2023-05-21T21:19:45;100715.41;;;15.00;51.78
58979;BME280;44763;50.464;30.612;2023-05-21T21:22:13;100710.70;;;14.96;51.82
58979;BME280;44763;50.464;30.612;2023-05-21T21:24:40;100707.00;;;14.92;51.91
58979;BME280;44763;50.464;30.612;2023-05-21T21:27:07;100705.38;;;14.88;51.71
58979;BME280;44763;50.464;30.612;2023-05-21T21:29:34;100709.94;;;14.89;51.39
58979;BME280;44763;50.464;30.612;2023-05-21T21:32:01;100708.85;;;14.90;51.69
58979;BME280;44763;50.464;30.612;2023-05-21T21:34:28;100709.55;;;14.90;51.41
58979;BME280;44763;50.464;30.612;2023-05-21T21:36:54;100706.63;;;14.91;51.81
58979;BME280;44763;50.464;30.612;2023-05-21T21:39:21;100704.73;;;14.89;52.02
58979;BME280;44763;50.464;30.612;2023-05-21T21:41:48;100702.13;;;14.85;52.05
58979;BME280;44763;50.464;30.612;2023-05-21T21:44:15;100703.25;;;14.83;52.24
58979;BME280;44763;50.464;30.612;2023-05-21T21:46:41;100700.03;;;14.83;51.98
58979;BME280;44763;50.464;30.612;2023-05-21T21:49:08;100702.67;;;14.82;52.12
58979;BME280;44763;50.464;30.612;2023-05-21T21:51:35;100701.43;;;14.76;52.62
58979;BME280;44763;50.464;30.612;2023-05-21T21:54:02;100702.91;;;14.66;53.11
58979;BME280;44763;50.464;30.612;2023-05-21T21:56:29;100701.99;;;14.58;53.50
58979;BME280;44763;50.464;30.612;2023-05-21T21:58:56;100705.39;;;14.50;53.89
58979;BME280;44763;50.464;30.612;2023-05-21T22:01:23;100705.55;;;14.41;54.04
58979;BME280;44763;50.464;30.612;2023-05-21T22:03:50;100709.91;;;14.34;54.32
58979;BME280;44763;50.464;30.612;2023-05-21T22:06:17;100712.13;;;14.29;54.41
58979;BME280;44763;50.464;30.612;2023-05-21T22:08:44;100699.70;;;14.19;54.53
58979;BME280;44763;50.464;30.612;2023-05-21T22:11:11;100710.35;;;14.24;54.70
58979;BME280;44763;50.464;30.612;2023-05-21T22:13:37;100711.25;;;14.24;55.10
58979;BME280;44763;50.464;30.612;2023-05-21T22:16:07;100709.63;;;14.20;55.55
58979;BME280;44763;50.464;30.612;2023-05-21T22:18:33;100710.54;;;14.15;56.04
58979;BME280;44763;50.464;30.612;2023-05-21T22:21:08;100704.83;;;14.09;56.94
58979;BME280;44763;50.464;30.612;2023-05-21T22:23:37;100706.41;;;13.96;57.33
58979;BME280;44763;50.464;30.612;2023-05-21T22:26:05;100707.20;;;13.77;58.06
58979;BME280;44763;50.464;30.612;2023-05-21T22:28:32;100707.24;;;13.76;58.38
58979;BME280;44763;50.464;30.612;2023-05-21T22:30:58;100707.53;;;13.67;59.13
58979;BME280;44763;50.464;30.612;2023-05-21T22:33:25;100706.89;;;13.59;59.76
58979;BME280;44763;50.464;30.612;2023-05-21T22:35:52;100705.96;;;13.46;60.33
58979;BME280;44763;50.464;30.612;2023-05-21T22:38:20;100706.33;;;13.28;61.29
58979;BME280;44763;50.464;30.612;2023-05-21T22:40:47;100702.37;;;13.23;61.77
58979;BME280;44763;50.464;30.612;2023-05-21T22:43:14;100703.84;;;13.22;61.79
58979;BME280;44763;50.464;30.612;2023-05-21T22:45:40;100702.20;;;13.14;62.45
58979;BME280;44763;50.464;30.612;2023-05-21T22:48:08;100700.62;;;13.01;63.30
58979;BME280;44763;50.464;30.612;2023-05-21T22:50:35;100700.13;;;13.01;63.30
58979;BME280;44763;50.464;30.612;2023-05-21T22:53:05;100699.05;;;12.98;63.49
58979;BME280;44763;50.464;30.612;2023-05-21T22:55:31;100695.77;;;12.95;63.57
58979;BME280;44763;50.464;30.612;2023-05-21T22:57:58;100695.77;;;12.84;63.97
58979;BME280;44763;50.464;30.612;2023-05-21T23:00:25;100694.26;;;12.96;64.09
58979;BME280;44763;50.464;30.612;2023-05-21T23:02:52;100696.54;;;13.04;63.25
58979;BME280;44763;50.464;30.612;2023-05-21T23:05:20;100696.90;;;13.10;62.62
58979;BME280;44763;50.464;30.612;2023-05-21T23:07:48;100697.59;;;13.15;62.80
58979;BME280;44763;50.464;30.612;2023-05-21T23:10:15;100695.34;;;13.18;62.98
58979;BME280;44763;50.464;30.612;2023-05-21T23:12:41;100695.02;;;13.17;62.49
58979;BME280;44763;50.464;30.612;2023-05-21T23:15:08;100692.84;;;13.19;62.04
58979;BME280;44763;50.464;30.612;2023-05-21T23:17:36;100693.48;;;13.23;62.06
58979;BME280;44763;50.464;30.612;2023-05-21T23:20:05;100695.05;;;13.25;62.40
58979;BME280;44763;50.464;30.612;2023-05-21T23:22:34;100692.27;;;13.22;62.66
58979;BME280;44763;50.464;30.612;2023-05-21T23:25:01;100689.90;;;13.17;63.42
58979;BME280;44763;50.464;30.612;2023-05-21T23:27:28;100687.55;;;13.07;64.46
58979;BME280;44763;50.464;30.612;2023-05-21T23:29:55;100687.40;;;12.99;64.66
58979;BME280;44763;50.464;30.612;2023-05-21T23:32:22;100685.68;;;13.02;64.66
58979;BME280;44763;50.464;30.612;2023-05-21T23:34:49;100686.75;;;13.01;65.70
58979;BME280;44763;50.464;30.612;2023-05-21T23:37:16;100684.52;;;12.99;67.01
58979;BME280;44763;50.464;30.612;2023-05-21T23:39:43;100673.34;;;12.90;68.63
58979;BME280;44763;50.464;30.612;2023-05-21T23:42:14;100684.23;;;12.84;70.40
58979;BME280;44763;50.464;30.612;2023-05-21T23:44:41;100683.25;;;12.82;71.19
58979;BME280;44763;50.464;30.612;2023-05-21T23:47:08;100684.00;;;12.85;71.50
58979;BME280;44763;50.464;30.612;2023-05-21T23:49:35;100684.63;;;12.85;72.28
58979;BME280;44763;50.464;30.612;2023-05-21T23:52:02;100686.65;;;12.74;74.07
58979;BME280;44763;50.464;30.612;2023-05-21T23:54:29;100688.88;;;12.76;75.25
58979;BME280;44763;50.464;30.612;2023-05-21T23:56:56;100686.41;;;12.71;76.59
58979;BME280;44763;50.464;30.612;2023-05-21T23:59:23;100687.59;;;12.64;79.72
